sensor_id;sensor_type;location;lat;lon;timestamp;P1;durP1;ratioP1;P2;durP2;ratioP2
76733;SDS011;65660;53.288;14.666;2023-11-19T00:03:54;19.23;;;9.90;;
76733;SDS011;65660;53.288;14.666;2023-11-19T00:08:55;22.83;;;10.93;;
76733;SDS011;65660;53.288;14.666;2023-11-19T00:13:55;22.20;;;10.33;;
76733;SDS011;65660;53.288;14.666;2023-11-19T00:18:56;23.27;;;11.13;;
76733;SDS011;65660;53.288;14.666;2023-11-19T00:23:56;21.00;;;10.63;;
76733;SDS011;65660;53.288;14.666;2023-11-19T00:28:57;20.70;;;10.67;;
76733;SDS011;65660;53.288;14.666;2023-11-19T00:33:57;21.60;;;11.67;;
76733;SDS011;65660;53.288;14.666;2023-11-19T00:38:58;23.30;;;10.90;;
76733;SDS011;65660;53.288;14.666;2023-11-19T00:43:58;25.87;;;11.70;;
76733;SDS011;65660;53.288;14.666;2023-11-19T00:48:59;22.80;;;11.27;;
76733;SDS011;65660;53.288;14.666;2023-11-19T00:53:59;21.40;;;10.53;;
76733;SDS011;65660;53.288;14.666;2023-11-19T00:59:00;23.10;;;11.57;;
76733;SDS011;65660;53.288;14.666;2023-11-19T01:04:00;23.13;;;11.43;;
76733;SDS011;65660;53.288;14.666;2023-11-19T01:09:01;21.33;;;11.17;;
76733;SDS011;65660;53.288;14.666;2023-11-19T01:14:01;20.73;;;11.33;;
76733;SDS011;65660;53.288;14.666;2023-11-19T01:19:02;26.23;;;11.90;;
76733;SDS011;65660;53.288;14.666;2023-11-19T01:24:02;29.97;;;12.90;;
76733;SDS011;65660;53.288;14.666;2023-11-19T01:29:03;23.87;;;12.20;;
76733;SDS011;65660;53.288;14.666;2023-11-19T01:34:03;21.80;;;11.53;;
76733;SDS011;65660;53.288;14.666;2023-11-19T01:39:04;25.13;;;12.57;;
76733;SDS011;65660;53.288;14.666;2023-11-19T01:44:07;24.43;;;12.27;;
76733;SDS011;65660;53.288;14.666;2023-11-19T01:49:08;22.17;;;12.50;;
76733;SDS011;65660;53.288;14.666;2023-11-19T01:54:09;21.63;;;11.50;;
76733;SDS011;65660;53.288;14.666;2023-11-19T01:59:10;24.90;;;12.37;;
76733;SDS011;65660;53.288;14.666;2023-11-19T02:04:11;20.33;;;11.33;;
76733;SDS011;65660;53.288;14.666;2023-11-19T02:09:12;24.90;;;11.40;;
76733;SDS011;65660;53.288;14.666;2023-11-19T02:14:13;22.00;;;11.97;;
76733;SDS011;65660;53.288;14.666;2023-11-19T02:19:13;22.83;;;12.30;;
76733;SDS011;65660;53.288;14.666;2023-11-19T02:24:14;20.30;;;11.93;;
76733;SDS011;65660;53.288;14.666;2023-11-19T02:29:15;23.23;;;12.13;;
76733;SDS011;65660;53.288;14.666;2023-11-19T02:34:15;27.47;;;13.13;;
76733;SDS011;65660;53.288;14.666;2023-11-19T02:39:16;21.60;;;12.33;;
76733;SDS011;65660;53.288;14.666;2023-11-19T02:44:16;19.13;;;11.00;;
76733;SDS011;65660;53.288;14.666;2023-11-19T02:49:17;20.57;;;11.67;;
76733;SDS011;65660;53.288;14.666;2023-11-19T02:54:17;21.17;;;11.53;;
76733;SDS011;65660;53.288;14.666;2023-11-19T02:59:18;23.33;;;11.90;;
76733;SDS011;65660;53.288;14.666;2023-11-19T03:04:19;21.73;;;11.77;;
76733;SDS011;65660;53.288;14.666;2023-11-19T03:09:19;25.90;;;12.67;;
76733;SDS011;65660;53.288;14.666;2023-11-19T03:14:20;25.17;;;12.33;;
76733;SDS011;65660;53.288;14.666;2023-11-19T03:19:20;22.10;;;12.47;;
76733;SDS011;65660;53.288;14.666;2023-11-19T03:24:21;24.73;;;13.27;;
76733;SDS011;65660;53.288;14.666;2023-11-19T03:29:21;24.93;;;12.60;;
76733;SDS011;65660;53.288;14.666;2023-11-19T03:34:22;24.00;;;12.33;;
76733;SDS011;65660;53.288;14.666;2023-11-19T03:39:22;28.17;;;13.97;;
76733;SDS011;65660;53.288;14.666;2023-11-19T03:44:23;28.17;;;14.03;;
76733;SDS011;65660;53.288;14.666;2023-11-19T03:49:23;29.47;;;14.37;;
76733;SDS011;65660;53.288;14.666;2023-11-19T03:54:24;29.53;;;14.97;;
76733;SDS011;65660;53.288;14.666;2023-11-19T03:59:24;24.77;;;12.80;;
76733;SDS011;65660;53.288;14.666;2023-11-19T04:04:25;29.83;;;14.90;;
76733;SDS011;65660;53.288;14.666;2023-11-19T04:09:25;28.83;;;14.70;;
76733;SDS011;65660;53.288;14.666;2023-11-19T04:14:26;25.90;;;13.90;;
76733;SDS011;65660;53.288;14.666;2023-11-19T04:19:27;24.27;;;12.50;;
76733;SDS011;65660;53.288;14.666;2023-11-19T04:24:27;25.87;;;13.90;;
76733;SDS011;65660;53.288;14.666;2023-11-19T04:29:29;24.57;;;13.70;;
76733;SDS011;65660;53.288;14.666;2023-11-19T04:34:30;25.17;;;13.07;;
76733;SDS011;65660;53.288;14.666;2023-11-19T04:39:30;26.40;;;13.33;;
76733;SDS011;65660;53.288;14.666;2023-11-19T04:44:31;25.70;;;13.33;;
76733;SDS011;65660;53.288;14.666;2023-11-19T04:49:31;25.33;;;13.17;;
76733;SDS011;65660;53.288;14.666;2023-11-19T04:54:32;28.40;;;14.13;;
76733;SDS011;65660;53.288;14.666;2023-11-19T04:59:34;27.37;;;14.53;;
76733;SDS011;65660;53.288;14.666;2023-11-19T05:04:34;24.23;;;13.07;;
76733;SDS011;65660;53.288;14.666;2023-11-19T05:09:35;25.93;;;13.63;;
76733;SDS011;65660;53.288;14.666;2023-11-19T05:14:35;26.67;;;14.80;;
76733;SDS011;65660;53.288;14.666;2023-11-19T05:19:36;26.23;;;14.10;;
76733;SDS011;65660;53.288;14.666;2023-11-19T05:24:36;23.47;;;12.40;;
76733;SDS011;65660;53.288;14.666;2023-11-19T05:29:37;27.70;;;14.50;;
76733;SDS011;65660;53.288;14.666;2023-11-19T05:34:37;24.17;;;13.07;;
76733;SDS011;65660;53.288;14.666;2023-11-19T05:39:38;28.03;;;14.20;;
76733;SDS011;65660;53.288;14.666;2023-11-19T05:44:38;26.87;;;13.87;;
76733;SDS011;65660;53.288;14.666;2023-11-19T05:49:39;26.93;;;14.47;;
76733;SDS011;65660;53.288;14.666;2023-11-19T05:54:39;23.10;;;13.57;;
76733;SDS011;65660;53.288;14.666;2023-11-19T05:59:40;28.87;;;14.50;;
76733;SDS011;65660;53.288;14.666;2023-11-19T06:04:40;24.20;;;13.10;;
76733;SDS011;65660;53.288;14.666;2023-11-19T06:09:41;27.97;;;14.83;;
76733;SDS011;65660;53.288;14.666;2023-11-19T06:14:41;25.83;;;13.60;;
76733;SDS011;65660;53.288;14.666;2023-11-19T06:19:42;26.47;;;14.20;;
76733;SDS011;65660;53.288;14.666;2023-11-19T06:24:42;26.90;;;13.63;;
76733;SDS011;65660;53.288;14.666;2023-11-19T06:29:43;31.20;;;15.20;;
76733;SDS011;65660;53.288;14.666;2023-11-19T06:34:43;32.63;;;14.77;;
76733;SDS011;65660;53.288;14.666;2023-11-19T06:39:44;27.50;;;14.03;;
76733;SDS011;65660;53.288;14.666;2023-11-19T06:44:44;31.30;;;15.33;;
76733;SDS011;65660;53.288;14.666;2023-11-19T06:49:45;25.47;;;13.87;;
76733;SDS011;65660;53.288;14.666;2023-11-19T06:54:46;27.33;;;14.37;;
76733;SDS011;65660;53.288;14.666;2023-11-19T06:59:46;27.03;;;13.70;;
76733;SDS011;65660;53.288;14.666;2023-11-19T07:04:47;25.27;;;12.67;;
76733;SDS011;65660;53.288;14.666;2023-11-19T07:09:47;24.50;;;12.90;;
76733;SDS011;65660;53.288;14.666;2023-11-19T07:14:48;22.43;;;12.67;;
76733;SDS011;65660;53.288;14.666;2023-11-19T07:19:49;21.73;;;11.90;;
76733;SDS011;65660;53.288;14.666;2023-11-19T07:24:50;21.13;;;11.50;;
76733;SDS011;65660;53.288;14.666;2023-11-19T07:29:50;21.43;;;10.93;;
76733;SDS011;65660;53.288;14.666;2023-11-19T07:34:51;20.53;;;11.27;;
76733;SDS011;65660;53.288;14.666;2023-11-19T07:39:51;18.50;;;10.13;;
76733;SDS011;65660;53.288;14.666;2023-11-19T07:44:52;34.10;;;19.17;;
76733;SDS011;65660;53.288;14.666;2023-11-19T07:49:52;21.00;;;10.83;;
76733;SDS011;65660;53.288;14.666;2023-11-19T07:54:53;23.07;;;11.27;;
76733;SDS011;65660;53.288;14.666;2023-11-19T07:59:53;21.23;;;12.00;;
76733;SDS011;65660;53.288;14.666;2023-11-19T08:04:54;25.93;;;13.40;;
76733;SDS011;65660;53.288;14.666;2023-11-19T08:09:54;22.90;;;12.83;;
76733;SDS011;65660;53.288;14.666;2023-11-19T08:14:55;18.87;;;11.83;;
76733;SDS011;65660;53.288;14.666;2023-11-19T08:19:55;19.67;;;10.57;;
76733;SDS011;65660;53.288;14.666;2023-11-19T08:24:56;16.40;;;10.37;;
76733;SDS011;65660;53.288;14.666;2023-11-19T08:29:57;15.37;;;9.47;;
76733;SDS011;65660;53.288;14.666;2023-11-19T08:34:57;15.07;;;8.67;;
76733;SDS011;65660;53.288;14.666;2023-11-19T08:39:58;14.57;;;8.70;;
76733;SDS011;65660;53.288;14.666;2023-11-19T08:44:58;14.47;;;9.43;;
76733;SDS011;65660;53.288;14.666;2023-11-19T08:49:59;14.03;;;8.73;;
76733;SDS011;65660;53.288;14.666;2023-11-19T08:54:59;14.57;;;8.90;;
76733;SDS011;65660;53.288;14.666;2023-11-19T09:00:00;16.10;;;9.77;;
76733;SDS011;65660;53.288;14.666;2023-11-19T09:05:00;12.60;;;8.30;;
76733;SDS011;65660;53.288;14.666;2023-11-19T09:10:01;16.67;;;9.27;;
76733;SDS011;65660;53.288;14.666;2023-11-19T09:15:02;15.13;;;8.87;;
76733;SDS011;65660;53.288;14.666;2023-11-19T09:20:03;13.47;;;7.83;;
76733;SDS011;65660;53.288;14.666;2023-11-19T09:25:04;13.10;;;7.00;;
76733;SDS011;65660;53.288;14.666;2023-11-19T09:30:04;13.53;;;8.43;;
76733;SDS011;65660;53.288;14.666;2023-11-19T09:35:06;14.63;;;8.00;;
76733;SDS011;65660;53.288;14.666;2023-11-19T09:40:06;12.73;;;7.50;;
76733;SDS011;65660;53.288;14.666;2023-11-19T09:45:07;12.50;;;8.30;;
76733;SDS011;65660;53.288;14.666;2023-11-19T09:50:17;12.53;;;7.37;;
76733;SDS011;65660;53.288;14.666;2023-11-19T09:55:18;12.93;;;7.60;;
76733;SDS011;65660;53.288;14.666;2023-11-19T10:00:18;15.63;;;8.37;;
76733;SDS011;65660;53.288;14.666;2023-11-19T10:05:21;13.73;;;8.10;;
76733;SDS011;65660;53.288;14.666;2023-11-19T10:10:23;13.17;;;7.87;;
76733;SDS011;65660;53.288;14.666;2023-11-19T10:15:24;13.73;;;8.00;;
76733;SDS011;65660;53.288;14.666;2023-11-19T10:20:24;12.57;;;7.50;;
76733;SDS011;65660;53.288;14.666;2023-11-19T10:25:25;12.73;;;7.80;;
76733;SDS011;65660;53.288;14.666;2023-11-19T10:30:28;12.27;;;7.03;;
76733;SDS011;65660;53.288;14.666;2023-11-19T10:35:29;13.77;;;7.47;;
76733;SDS011;65660;53.288;14.666;2023-11-19T10:40:39;12.17;;;7.43;;
76733;SDS011;65660;53.288;14.666;2023-11-19T10:45:40;15.00;;;8.43;;
76733;SDS011;65660;53.288;14.666;2023-11-19T10:50:42;15.57;;;8.33;;
76733;SDS011;65660;53.288;14.666;2023-11-19T10:55:43;13.37;;;7.43;;
76733;SDS011;65660;53.288;14.666;2023-11-19T11:00:47;12.57;;;7.90;;
76733;SDS011;65660;53.288;14.666;2023-11-19T11:05:50;14.20;;;8.47;;
76733;SDS011;65660;53.288;14.666;2023-11-19T11:10:55;17.87;;;11.20;;
76733;SDS011;65660;53.288;14.666;2023-11-19T11:15:56;13.13;;;8.67;;
76733;SDS011;65660;53.288;14.666;2023-11-19T11:21:00;15.03;;;9.13;;
76733;SDS011;65660;53.288;14.666;2023-11-19T11:36:36;19.00;;;9.30;;
76733;SDS011;65660;53.288;14.666;2023-11-19T11:41:44;18.53;;;9.20;;
76733;SDS011;65660;53.288;14.666;2023-11-19T11:46:54;18.10;;;9.80;;
76733;SDS011;65660;53.288;14.666;2023-11-19T11:51:57;15.90;;;8.83;;
76733;SDS011;65660;53.288;14.666;2023-11-19T11:57:11;14.13;;;8.43;;
76733;SDS011;65660;53.288;14.666;2023-11-19T12:02:14;13.73;;;8.27;;
76733;SDS011;65660;53.288;14.666;2023-11-19T12:07:20;13.90;;;7.70;;
76733;SDS011;65660;53.288;14.666;2023-11-19T12:12:22;14.20;;;8.70;;
76733;SDS011;65660;53.288;14.666;2023-11-19T12:22:33;14.43;;;8.70;;
76733;SDS011;65660;53.288;14.666;2023-11-19T12:27:36;14.17;;;8.17;;
76733;SDS011;65660;53.288;14.666;2023-11-19T12:32:38;15.03;;;8.23;;
76733;SDS011;65660;53.288;14.666;2023-11-19T12:37:40;13.93;;;8.53;;
76733;SDS011;65660;53.288;14.666;2023-11-19T12:42:41;14.20;;;8.33;;
76733;SDS011;65660;53.288;14.666;2023-11-19T12:47:43;16.37;;;9.50;;
76733;SDS011;65660;53.288;14.666;2023-11-19T12:53:05;15.33;;;9.00;;
76733;SDS011;65660;53.288;14.666;2023-11-19T12:58:04;15.17;;;8.90;;
76733;SDS011;65660;53.288;14.666;2023-11-19T13:03:05;17.00;;;10.53;;
76733;SDS011;65660;53.288;14.666;2023-11-19T13:08:07;25.57;;;11.87;;
76733;SDS011;65660;53.288;14.666;2023-11-19T13:13:08;16.10;;;9.37;;
76733;SDS011;65660;53.288;14.666;2023-11-19T13:18:09;16.67;;;10.60;;
76733;SDS011;65660;53.288;14.666;2023-11-19T13:23:09;16.07;;;9.57;;
76733;SDS011;65660;53.288;14.666;2023-11-19T13:28:10;27.03;;;11.93;;
76733;SDS011;65660;53.288;14.666;2023-11-19T13:33:10;14.53;;;8.97;;
76733;SDS011;65660;53.288;14.666;2023-11-19T13:38:11;29.03;;;12.87;;
76733;SDS011;65660;53.288;14.666;2023-11-19T13:43:11;16.60;;;8.83;;
76733;SDS011;65660;53.288;14.666;2023-11-19T13:48:12;15.43;;;9.90;;
76733;SDS011;65660;53.288;14.666;2023-11-19T13:53:12;48.67;;;17.87;;
76733;SDS011;65660;53.288;14.666;2023-11-19T13:58:13;22.93;;;11.30;;
76733;SDS011;65660;53.288;14.666;2023-11-19T14:03:13;17.87;;;10.67;;
76733;SDS011;65660;53.288;14.666;2023-11-19T14:08:14;36.10;;;15.37;;
76733;SDS011;65660;53.288;14.666;2023-11-19T14:13:14;26.60;;;13.17;;
76733;SDS011;65660;53.288;14.666;2023-11-19T14:18:14;16.73;;;10.07;;
76733;SDS011;65660;53.288;14.666;2023-11-19T14:23:15;17.27;;;10.63;;
76733;SDS011;65660;53.288;14.666;2023-11-19T14:28:15;25.00;;;13.37;;
76733;SDS011;65660;53.288;14.666;2023-11-19T14:33:16;21.80;;;11.80;;
76733;SDS011;65660;53.288;14.666;2023-11-19T14:38:17;17.33;;;10.83;;
76733;SDS011;65660;53.288;14.666;2023-11-19T14:43:17;18.93;;;11.37;;
76733;SDS011;65660;53.288;14.666;2023-11-19T14:48:18;35.43;;;15.40;;
76733;SDS011;65660;53.288;14.666;2023-11-19T14:53:18;21.03;;;11.90;;
76733;SDS011;65660;53.288;14.666;2023-11-19T14:58:19;15.67;;;9.90;;
76733;SDS011;65660;53.288;14.666;2023-11-19T15:03:19;18.83;;;11.33;;
76733;SDS011;65660;53.288;14.666;2023-11-19T15:08:20;16.53;;;9.87;;
76733;SDS011;65660;53.288;14.666;2023-11-19T15:13:20;22.20;;;11.90;;
76733;SDS011;65660;53.288;14.666;2023-11-19T15:18:21;18.47;;;11.00;;
76733;SDS011;65660;53.288;14.666;2023-11-19T15:23:21;55.13;;;17.30;;
76733;SDS011;65660;53.288;14.666;2023-11-19T15:28:21;20.60;;;11.67;;
76733;SDS011;65660;53.288;14.666;2023-11-19T15:33:22;18.90;;;11.07;;
76733;SDS011;65660;53.288;14.666;2023-11-19T15:38:22;16.90;;;10.40;;
76733;SDS011;65660;53.288;14.666;2023-11-19T15:43:23;24.03;;;11.17;;
76733;SDS011;65660;53.288;14.666;2023-11-19T15:48:23;26.60;;;10.03;;
76733;SDS011;65660;53.288;14.666;2023-11-19T15:53:24;26.37;;;10.47;;
76733;SDS011;65660;53.288;14.666;2023-11-19T15:58:24;21.03;;;8.87;;
76733;SDS011;65660;53.288;14.666;2023-11-19T16:03:25;24.40;;;8.30;;
76733;SDS011;65660;53.288;14.666;2023-11-19T16:08:26;24.63;;;7.87;;
76733;SDS011;65660;53.288;14.666;2023-11-19T16:13:26;18.53;;;6.20;;
76733;SDS011;65660;53.288;14.666;2023-11-19T16:18:27;28.93;;;7.47;;
76733;SDS011;65660;53.288;14.666;2023-11-19T16:23:27;28.43;;;6.37;;
76733;SDS011;65660;53.288;14.666;2023-11-19T16:28:27;29.57;;;6.53;;
76733;SDS011;65660;53.288;14.666;2023-11-19T16:33:28;35.90;;;7.30;;
76733;SDS011;65660;53.288;14.666;2023-11-19T16:38:28;21.40;;;5.07;;
76733;SDS011;65660;53.288;14.666;2023-11-19T16:43:29;23.77;;;6.37;;
76733;SDS011;65660;53.288;14.666;2023-11-19T16:48:29;23.53;;;5.70;;
76733;SDS011;65660;53.288;14.666;2023-11-19T16:53:30;22.23;;;6.30;;
76733;SDS011;65660;53.288;14.666;2023-11-19T16:58:31;24.27;;;6.47;;
76733;SDS011;65660;53.288;14.666;2023-11-19T17:03:31;21.13;;;5.00;;
76733;SDS011;65660;53.288;14.666;2023-11-19T17:08:32;27.90;;;6.87;;
76733;SDS011;65660;53.288;14.666;2023-11-19T17:13:33;23.63;;;6.33;;
76733;SDS011;65660;53.288;14.666;2023-11-19T17:18:34;25.27;;;6.00;;
76733;SDS011;65660;53.288;14.666;2023-11-19T17:23:34;23.40;;;5.73;;
76733;SDS011;65660;53.288;14.666;2023-11-19T17:28:35;29.53;;;6.23;;
76733;SDS011;65660;53.288;14.666;2023-11-19T17:33:35;26.83;;;6.07;;
76733;SDS011;65660;53.288;14.666;2023-11-19T17:38:36;26.73;;;5.43;;
76733;SDS011;65660;53.288;14.666;2023-11-19T17:43:36;27.70;;;6.10;;
76733;SDS011;65660;53.288;14.666;2023-11-19T17:48:37;34.07;;;6.27;;
76733;SDS011;65660;53.288;14.666;2023-11-19T17:53:37;27.07;;;5.33;;
76733;SDS011;65660;53.288;14.666;2023-11-19T17:58:38;31.70;;;6.23;;
76733;SDS011;65660;53.288;14.666;2023-11-19T18:03:38;30.70;;;5.07;;
76733;SDS011;65660;53.288;14.666;2023-11-19T18:08:39;37.67;;;6.73;;
76733;SDS011;65660;53.288;14.666;2023-11-19T18:13:39;28.50;;;6.70;;
76733;SDS011;65660;53.288;14.666;2023-11-19T18:18:40;27.30;;;5.40;;
76733;SDS011;65660;53.288;14.666;2023-11-19T18:23:40;27.20;;;6.00;;
76733;SDS011;65660;53.288;14.666;2023-11-19T18:28:40;24.07;;;5.70;;
76733;SDS011;65660;53.288;14.666;2023-11-19T18:33:41;28.53;;;6.47;;
76733;SDS011;65660;53.288;14.666;2023-11-19T18:38:42;25.93;;;5.20;;
76733;SDS011;65660;53.288;14.666;2023-11-19T18:43:42;30.67;;;6.00;;
76733;SDS011;65660;53.288;14.666;2023-11-19T18:48:43;29.33;;;6.20;;
76733;SDS011;65660;53.288;14.666;2023-11-19T18:53:43;24.60;;;5.40;;
76733;SDS011;65660;53.288;14.666;2023-11-19T18:58:44;23.10;;;5.83;;
76733;SDS011;65660;53.288;14.666;2023-11-19T19:03:44;22.13;;;5.77;;
76733;SDS011;65660;53.288;14.666;2023-11-19T19:08:45;26.93;;;6.30;;
76733;SDS011;65660;53.288;14.666;2023-11-19T19:13:45;31.63;;;5.57;;
76733;SDS011;65660;53.288;14.666;2023-11-19T19:18:46;28.73;;;6.00;;
76733;SDS011;65660;53.288;14.666;2023-11-19T19:23:46;20.70;;;5.40;;
76733;SDS011;65660;53.288;14.666;2023-11-19T19:28:47;25.80;;;5.50;;
76733;SDS011;65660;53.288;14.666;2023-11-19T19:33:47;26.07;;;5.70;;
76733;SDS011;65660;53.288;14.666;2023-11-19T19:38:48;26.97;;;5.80;;
76733;SDS011;65660;53.288;14.666;2023-11-19T19:43:48;22.93;;;6.20;;
76733;SDS011;65660;53.288;14.666;2023-11-19T19:48:49;26.27;;;5.77;;
76733;SDS011;65660;53.288;14.666;2023-11-19T19:53:50;28.87;;;5.80;;
76733;SDS011;65660;53.288;14.666;2023-11-19T19:58:50;26.93;;;5.77;;
76733;SDS011;65660;53.288;14.666;2023-11-19T20:03:51;22.80;;;5.57;;
76733;SDS011;65660;53.288;14.666;2023-11-19T20:08:51;29.17;;;5.90;;
76733;SDS011;65660;53.288;14.666;2023-11-19T20:13:52;21.33;;;4.83;;
76733;SDS011;65660;53.288;14.666;2023-11-19T20:18:53;23.03;;;5.40;;
76733;SDS011;65660;53.288;14.666;2023-11-19T20:23:54;21.97;;;5.67;;
76733;SDS011;65660;53.288;14.666;2023-11-19T20:28:54;24.03;;;5.50;;
76733;SDS011;65660;53.288;14.666;2023-11-19T20:33:55;29.30;;;5.40;;
76733;SDS011;65660;53.288;14.666;2023-11-19T20:38:55;25.50;;;5.13;;
76733;SDS011;65660;53.288;14.666;2023-11-19T20:43:56;25.77;;;5.20;;
76733;SDS011;65660;53.288;14.666;2023-11-19T20:48:56;21.43;;;4.70;;
76733;SDS011;65660;53.288;14.666;2023-11-19T20:53:57;25.10;;;4.90;;
76733;SDS011;65660;53.288;14.666;2023-11-19T20:58:57;17.00;;;4.23;;
76733;SDS011;65660;53.288;14.666;2023-11-19T21:03:57;24.00;;;4.30;;
76733;SDS011;65660;53.288;14.666;2023-11-19T21:08:58;13.90;;;3.80;;
76733;SDS011;65660;53.288;14.666;2023-11-19T21:13:58;20.00;;;4.90;;
76733;SDS011;65660;53.288;14.666;2023-11-19T21:18:59;22.50;;;5.00;;
76733;SDS011;65660;53.288;14.666;2023-11-19T21:24:00;19.17;;;4.50;;
76733;SDS011;65660;53.288;14.666;2023-11-19T21:29:00;21.20;;;4.10;;
76733;SDS011;65660;53.288;14.666;2023-11-19T21:34:00;23.07;;;4.40;;
76733;SDS011;65660;53.288;14.666;2023-11-19T21:39:01;18.97;;;4.00;;
76733;SDS011;65660;53.288;14.666;2023-11-19T21:44:02;17.67;;;4.30;;
76733;SDS011;65660;53.288;14.666;2023-11-19T21:49:02;17.57;;;4.23;;
76733;SDS011;65660;53.288;14.666;2023-11-19T21:54:03;18.13;;;3.60;;
76733;SDS011;65660;53.288;14.666;2023-11-19T21:59:03;11.60;;;3.47;;
76733;SDS011;65660;53.288;14.666;2023-11-19T22:04:04;14.53;;;3.63;;
76733;SDS011;65660;53.288;14.666;2023-11-19T22:09:05;12.37;;;3.50;;
76733;SDS011;65660;53.288;14.666;2023-11-19T22:14:05;15.40;;;3.80;;
76733;SDS011;65660;53.288;14.666;2023-11-19T22:19:06;13.60;;;3.47;;
76733;SDS011;65660;53.288;14.666;2023-11-19T22:24:06;11.50;;;3.23;;
76733;SDS011;65660;53.288;14.666;2023-11-19T22:29:07;11.47;;;3.07;;
76733;SDS011;65660;53.288;14.666;2023-11-19T22:34:08;16.70;;;4.17;;
76733;SDS011;65660;53.288;14.666;2023-11-19T22:39:08;18.27;;;3.40;;
76733;SDS011;65660;53.288;14.666;2023-11-19T22:44:09;13.73;;;3.73;;
76733;SDS011;65660;53.288;14.666;2023-11-19T22:49:09;17.07;;;4.03;;
76733;SDS011;65660;53.288;14.666;2023-11-19T22:54:10;14.53;;;3.33;;
76733;SDS011;65660;53.288;14.666;2023-11-19T22:59:10;9.63;;;2.87;;
76733;SDS011;65660;53.288;14.666;2023-11-19T23:04:10;14.03;;;3.57;;
76733;SDS011;65660;53.288;14.666;2023-11-19T23:09:11;12.17;;;3.50;;
76733;SDS011;65660;53.288;14.666;2023-11-19T23:14:11;12.07;;;3.27;;
76733;SDS011;65660;53.288;14.666;2023-11-19T23:19:12;14.57;;;3.27;;
76733;SDS011;65660;53.288;14.666;2023-11-19T23:24:12;11.07;;;3.90;;
76733;SDS011;65660;53.288;14.666;2023-11-19T23:29:13;15.53;;;4.10;;
76733;SDS011;65660;53.288;14.666;2023-11-19T23:34:13;11.17;;;3.80;;
76733;SDS011;65660;53.288;14.666;2023-11-19T23:39:14;17.73;;;4.60;;
76733;SDS011;65660;53.288;14.666;2023-11-19T23:44:14;18.07;;;4.67;;
76733;SDS011;65660;53.288;14.666;2023-11-19T23:49:15;18.27;;;4.87;;
76733;SDS011;65660;53.288;14.666;2023-11-19T23:54:16;12.80;;;3.43;;
76733;SDS011;65660;53.288;14.666;2023-11-19T23:59:16;21.37;;;4.80;;
